createdAt,value
2023-04-18T03:12:52.827Z,98639.19
2023-04-18T03:15:20.560Z,98639.44
2023-04-18T03:17:47.991Z,98648.00
2023-04-18T03:20:16.333Z,98640.50
2023-04-18T03:22:42.924Z,98619.28
2023-04-18T03:25:11.241Z,98628.78
2023-04-18T03:27:44.610Z,98636.16
2023-04-18T03:30:13.580Z,98635.56
2023-04-18T03:32:42.393Z,98628.09
2023-04-18T03:35:09.544Z,98636.53
2023-04-18T03:37:36.191Z,98631.19
2023-04-18T03:40:05.404Z,98617.78
2023-04-18T03:42:32.133Z,98628.41
2023-04-18T03:44:59.083Z,98623.84
2023-04-18T03:47:25.959Z,98632.88
2023-04-18T03:49:56.160Z,98614.69
2023-04-18T03:52:24.665Z,98613.88
2023-04-18T03:54:51.557Z,98617.56
2023-04-18T03:57:22.217Z,98625.66
2023-04-18T03:59:48.779Z,98608.78
2023-04-18T04:02:15.920Z,98624.06
2023-04-18T04:04:43.160Z,98615.13
2023-04-18T04:07:11.941Z,98616.78
2023-04-18T04:09:38.454Z,98628.69
2023-04-18T04:12:06.338Z,98618.50
2023-04-18T04:14:35.412Z,98623.09
2023-04-18T04:17:02.549Z,98630.28
2023-04-18T04:19:30.269Z,98602.59
2023-04-18T04:22:07.170Z,98629.19
2023-04-18T04:24:33.997Z,98632.03
2023-04-18T04:27:01.684Z,98629.91
2023-04-18T04:29:29.072Z,98626.78
2023-04-18T04:31:59.142Z,98630.88
2023-04-18T04:34:31.613Z,98644.16
2023-04-18T04:37:03.878Z,98639.03
2023-04-18T04:39:35.092Z,98628.41
2023-04-18T04:42:19.748Z,98623.56
2023-04-18T04:45:02.758Z,98626.56
2023-04-18T04:47:29.398Z,98623.59
2023-04-18T04:49:56.047Z,98632.28
2023-04-18T04:52:22.611Z,98637.22
2023-04-18T04:54:51.770Z,98622.00
2023-04-18T04:57:20.228Z,98626.41
2023-04-18T04:59:47.159Z,98632.66
2023-04-18T05:02:13.826Z,98627.13
2023-04-18T05:04:41.026Z,98629.25
2023-04-18T05:07:07.672Z,98635.91
2023-04-18T05:09:34.241Z,98632.59
2023-04-18T05:12:01.876Z,98638.63
2023-04-18T05:14:28.458Z,98646.00
2023-04-18T05:16:55.651Z,98650.03
2023-04-18T05:19:23.778Z,98661.13
2023-04-18T05:21:50.271Z,98647.97
2023-04-18T05:24:17.016Z,98654.91
2023-04-18T05:26:43.733Z,98657.81
2023-04-18T05:29:10.311Z,98657.31
2023-04-18T05:31:36.940Z,98654.75
2023-04-18T05:34:03.836Z,98655.59
2023-04-18T05:36:30.470Z,98648.72
2023-04-18T05:38:57.022Z,98660.22
2023-04-18T05:41:23.528Z,98686.06
2023-04-18T05:43:58.114Z,98678.75
2023-04-18T05:46:31.332Z,98659.28
2023-04-18T05:48:57.872Z,98677.28
2023-04-18T05:51:24.506Z,98664.81
2023-04-18T05:53:51.080Z,98675.22
2023-04-18T05:56:17.621Z,98678.72
2023-04-18T05:58:45.671Z,98684.59
2023-04-18T06:01:14.215Z,98671.34
2023-04-18T06:03:41.458Z,98655.84
2023-04-18T06:06:08.503Z,98662.19
2023-04-18T06:08:35.036Z,98659.97
2023-04-18T06:11:01.665Z,98667.63
2023-04-18T06:13:28.210Z,98665.06
2023-04-18T06:15:54.889Z,98676.53
2023-04-18T06:18:21.551Z,98684.34
2023-04-18T06:20:48.056Z,98680.66
2023-04-18T06:23:15.038Z,98681.03
2023-04-18T06:25:42.664Z,98665.69
2023-04-18T06:28:09.785Z,98683.19
2023-04-18T06:30:36.663Z,98689.75
2023-04-18T06:33:03.349Z,98686.72
2023-04-18T06:35:30.984Z,98700.03
2023-04-18T06:37:57.520Z,98712.75
2023-04-18T06:40:24.157Z,98727.22
2023-04-18T06:42:50.863Z,98724.78
2023-04-18T06:45:17.514Z,98760.31
2023-04-18T06:47:44.193Z,98777.97
2023-04-18T06:50:10.960Z,98777.34
2023-04-18T06:52:40.575Z,98770.53
2023-04-18T06:55:09.137Z,98739.66
2023-04-18T06:57:35.764Z,98774.56
2023-04-18T07:00:03.409Z,98748.31
2023-04-18T07:02:30.139Z,98753.97
2023-04-18T07:04:56.884Z,98749.31
2023-04-18T07:07:23.678Z,98761.56
2023-04-18T07:09:50.203Z,98762.00
2023-04-18T07:12:16.764Z,98789.94
2023-04-18T07:14:43.387Z,98790.88
2023-04-18T07:17:10.086Z,98787.84
2023-04-18T07:19:36.776Z,98828.22
2023-04-18T07:22:03.313Z,98829.75
2023-04-18T07:24:30.196Z,98831.50
2023-04-18T07:26:56.781Z,98831.03
2023-04-18T07:29:23.366Z,98801.06
2023-04-18T07:31:51.945Z,98805.09
2023-04-18T07:34:18.609Z,98864.56
2023-04-18T07:36:45.452Z,98930.31
2023-04-18T07:39:11.975Z,98954.25
2023-04-18T07:41:38.523Z,98944.25
2023-04-18T07:44:05.278Z,98918.53
2023-04-18T07:46:32.507Z,98859.63
2023-04-18T07:48:59.527Z,98841.56
2023-04-18T07:51:31.338Z,98843.03
2023-04-18T07:53:58.712Z,98840.69
2023-04-18T07:56:26.028Z,98873.94
2023-04-18T07:58:53.122Z,98890.16
2023-04-18T08:01:23.996Z,98888.22
2023-04-18T08:03:51.797Z,98862.94
2023-04-18T08:06:18.482Z,98852.47
2023-04-18T08:08:44.999Z,98858.16
2023-04-18T08:11:11.672Z,98868.53
2023-04-18T08:13:38.234Z,98889.53
2023-04-18T08:16:04.935Z,98876.47
2023-04-18T08:18:31.528Z,98910.19
2023-04-18T08:20:58.061Z,98909.66
2023-04-18T08:23:24.583Z,98936.34
2023-04-18T08:25:51.231Z,98923.22
2023-04-18T08:28:17.736Z,98925.19
2023-04-18T08:30:48.678Z,98923.03
2023-04-18T08:33:16.152Z,98932.13
2023-04-18T08:35:43.096Z,98928.09
2023-04-18T08:38:09.811Z,98941.38
2023-04-18T08:40:37.483Z,98931.63
2023-04-18T08:43:09.325Z,98942.81
2023-04-18T08:45:36.812Z,98934.59
2023-04-18T08:48:03.920Z,99000.94
2023-04-18T08:50:31.945Z,99021.34
2023-04-18T08:53:01.011Z,99033.22
2023-04-18T08:55:27.533Z,99026.06
2023-04-18T08:57:55.336Z,99009.03
2023-04-18T09:00:23.551Z,98991.00
2023-04-18T09:02:50.879Z,98942.69
2023-04-18T09:05:22.563Z,98913.56
2023-04-18T09:07:50.352Z,98904.25
2023-04-18T09:10:29.447Z,98878.88
2023-04-18T09:12:58.728Z,98871.66
2023-04-18T09:15:29.820Z,98885.53
2023-04-18T09:17:59.228Z,98901.63
2023-04-18T09:20:40.945Z,98925.06
2023-04-18T09:23:10.446Z,98930.38
2023-04-18T09:25:40.169Z,98925.06
2023-04-18T09:28:27.776Z,98912.75
2023-04-18T09:30:56.230Z,98902.88
2023-04-18T09:33:32.936Z,98925.22
2023-04-18T09:36:18.768Z,98910.63
2023-04-18T09:38:45.920Z,98898.13
2023-04-18T09:41:15.599Z,98880.91
2023-04-18T09:43:42.144Z,98861.13
2023-04-18T09:46:09.689Z,98867.06
2023-04-18T09:48:36.835Z,98882.03
2023-04-18T09:51:08.384Z,98905.47
2023-04-18T09:53:39.463Z,98920.91
2023-04-18T09:56:14.657Z,98922.88
2023-04-18T09:58:42.372Z,98904.56
2023-04-18T10:01:09.311Z,98918.66
2023-04-18T10:03:44.604Z,98927.75
2023-04-18T10:06:11.725Z,98900.53
2023-04-18T10:08:39.732Z,98913.59
2023-04-18T10:11:06.435Z,98901.22
2023-04-18T10:13:35.178Z,98912.09
2023-04-18T10:16:02.478Z,98891.72
2023-04-18T10:18:29.132Z,98889.84
2023-04-18T10:21:04.047Z,98885.06
2023-04-18T10:23:34.712Z,98871.31
2023-04-18T10:26:02.415Z,98859.47
2023-04-18T10:28:58.545Z,98866.69
2023-04-18T10:31:27.480Z,98838.72
2023-04-18T10:34:04.785Z,98858.69
2023-04-18T10:36:33.046Z,98842.94
2023-04-18T10:39:21.296Z,98878.00
2023-04-18T10:41:50.630Z,98895.63
2023-04-18T10:44:19.764Z,98927.88
2023-04-18T10:46:52.542Z,98939.63
2023-04-18T10:49:26.344Z,98931.13
2023-04-18T10:52:02.091Z,98920.59
2023-04-18T10:54:35.964Z,98916.66
2023-04-18T10:57:07.565Z,98879.50
2023-04-18T10:59:39.087Z,98843.78
2023-04-18T11:02:17.994Z,98804.22
2023-04-18T11:04:51.295Z,98792.34
2023-04-18T11:07:18.199Z,98803.41
2023-04-18T11:09:54.541Z,98802.47
2023-04-18T11:12:21.254Z,98842.78
2023-04-18T11:14:51.885Z,98873.25
2023-04-18T11:17:20.327Z,98817.53
2023-04-18T11:19:47.439Z,98824.81
2023-04-18T11:22:14.664Z,98816.91
2023-04-18T11:24:41.321Z,98836.16
2023-04-18T11:27:12.784Z,98839.84
2023-04-18T11:29:39.404Z,98826.69
2023-04-18T11:32:07.665Z,98825.53
2023-04-18T11:34:35.826Z,98818.13
2023-04-18T11:37:07.316Z,98806.44
2023-04-18T11:39:36.063Z,98894.00
2023-04-18T11:42:02.691Z,98900.00
2023-04-18T11:44:29.235Z,98897.09
2023-04-18T11:46:55.870Z,98908.34
2023-04-18T11:49:29.793Z,98864.88
2023-04-18T11:51:56.950Z,98912.28
2023-04-18T11:54:42.943Z,98904.69
2023-04-18T11:57:24.321Z,98897.56
2023-04-18T11:59:51.911Z,98850.91
2023-04-18T12:02:19.332Z,98837.56
2023-04-18T12:05:00.049Z,98824.88
2023-04-18T12:07:31.245Z,98831.50
2023-04-18T12:09:57.771Z,98877.88
2023-04-18T12:12:24.372Z,98876.41
2023-04-18T12:15:08.207Z,98873.75
2023-04-18T12:17:38.247Z,98892.16
2023-04-18T12:20:07.479Z,98872.06
2023-04-18T12:22:39.928Z,98845.47
2023-04-18T12:25:20.049Z,98846.06
2023-04-18T12:27:51.679Z,98822.88
2023-04-18T12:30:22.424Z,98814.22
2023-04-18T12:32:50.883Z,98815.41
2023-04-18T12:35:21.709Z,98790.88
2023-04-18T12:37:49.465Z,98797.03
2023-04-18T12:40:16.809Z,98806.94
2023-04-18T12:42:43.333Z,98795.00
2023-04-18T12:45:11.173Z,98794.28
2023-04-18T12:47:39.340Z,98792.94
2023-04-18T12:50:11.449Z,98794.38
2023-04-18T12:52:40.076Z,98794.47
2023-04-18T12:55:08.038Z,98800.69
2023-04-18T12:57:34.860Z,98798.53
2023-04-18T13:00:01.424Z,98793.78
2023-04-18T13:02:29.222Z,98783.41
2023-04-18T13:04:57.390Z,98774.66
2023-04-18T13:07:24.657Z,98762.09
2023-04-18T13:09:51.180Z,98783.53
2023-04-18T13:12:17.664Z,98753.56
2023-04-18T13:14:44.288Z,98765.69
2023-04-18T13:17:10.848Z,98760.50
2023-04-18T13:19:37.347Z,98751.88
2023-04-18T13:22:04.620Z,98749.03
2023-04-18T13:24:31.490Z,98757.72
2023-04-18T13:26:58.114Z,98731.50
2023-04-18T13:29:24.644Z,98757.72
2023-04-18T13:31:51.208Z,98755.13
2023-04-18T13:34:17.786Z,98754.47
2023-04-18T13:36:44.388Z,98740.56
2023-04-18T13:39:11.601Z,98744.84
2023-04-18T13:41:38.235Z,98738.09
2023-04-18T13:44:04.903Z,98727.94
2023-04-18T13:46:31.488Z,98730.84
2023-04-18T13:48:58.088Z,98746.25
2023-04-18T13:51:24.762Z,98732.66
2023-04-18T13:53:51.677Z,98745.75
2023-04-18T13:56:18.233Z,98757.84
2023-04-18T13:58:44.757Z,98750.28
2023-04-18T14:01:11.931Z,98755.19
2023-04-18T14:03:40.662Z,98752.25
2023-04-18T14:06:08.843Z,98747.19
2023-04-18T14:08:35.367Z,98765.13
2023-04-18T14:11:01.889Z,98754.31
2023-04-18T14:13:28.424Z,98759.06
2023-04-18T14:15:55.075Z,98759.34
2023-04-18T14:18:21.871Z,98770.19
2023-04-18T14:20:48.616Z,98781.91
2023-04-18T14:23:15.926Z,98772.56
2023-04-18T14:25:42.959Z,98788.38
2023-04-18T14:28:11.391Z,98789.53
2023-04-18T14:30:39.758Z,98808.88
2023-04-18T14:33:07.365Z,98794.19
2023-04-18T14:35:33.955Z,98780.69
2023-04-18T14:38:00.526Z,98763.78
2023-04-18T14:40:27.263Z,98771.47
2023-04-18T14:42:53.797Z,98764.59
2023-04-18T14:45:20.314Z,98759.63
2023-04-18T14:47:46.856Z,98748.28
2023-04-18T14:50:13.714Z,98763.06
2023-04-18T14:52:40.754Z,98774.78
2023-04-18T14:55:09.192Z,98771.53
2023-04-18T14:57:37.205Z,98771.47
2023-04-18T15:00:10.213Z,98777.81
2023-04-18T15:02:37.376Z,98779.03
2023-04-18T15:05:04.576Z,98780.47
2023-04-18T15:07:31.114Z,98782.28
2023-04-18T15:09:57.649Z,98785.34
2023-04-18T15:12:24.175Z,98791.88
2023-04-18T15:14:51.319Z,98768.63
2023-04-18T15:17:17.816Z,98777.34
2023-04-18T15:19:44.335Z,98788.09
2023-04-18T15:22:11.074Z,98792.69
2023-04-18T15:25:11.291Z,98791.16
2023-04-18T15:27:37.846Z,98752.25
2023-04-18T15:30:05.064Z,98763.13
2023-04-18T15:32:32.663Z,98778.59
2023-04-18T15:34:59.238Z,98786.53
2023-04-18T15:37:26.305Z,98783.75
2023-04-18T15:39:52.933Z,98780.78
2023-04-18T15:42:19.492Z,98803.66
2023-04-18T15:44:46.273Z,98797.09
2023-04-18T15:47:12.862Z,98798.94
2023-04-18T15:49:39.560Z,98798.25
2023-04-18T15:52:06.861Z,98789.94
2023-04-18T15:54:33.493Z,98810.97
2023-04-18T15:57:00.143Z,98794.09
2023-04-18T15:59:26.753Z,98803.34
2023-04-18T16:01:53.364Z,98795.47
2023-04-18T16:04:20.128Z,98786.28
2023-04-18T16:06:46.744Z,98778.28
2023-04-18T16:09:14.433Z,98789.38
2023-04-18T16:11:41.014Z,98785.25
2023-04-18T16:14:07.590Z,98777.81
2023-04-18T16:16:34.417Z,98758.47
2023-04-18T16:19:01.057Z,98772.97
2023-04-18T16:21:28.259Z,98755.38
2023-04-18T16:23:54.779Z,98766.41
2023-04-18T16:26:21.562Z,98754.75
2023-04-18T16:28:48.561Z,98777.06
2023-04-18T16:31:16.080Z,98775.16
2023-04-18T16:33:43.086Z,98753.06
2023-04-18T16:36:09.823Z,98755.31
2023-04-18T16:38:36.357Z,98761.53
2023-04-18T16:41:03.629Z,98750.53
2023-04-18T16:43:36.431Z,98748.72
2023-04-18T16:46:03.575Z,98753.06
2023-04-18T16:48:30.202Z,98748.31
2023-04-18T16:50:57.223Z,98724.44
2023-04-18T16:53:24.606Z,98738.56
2023-04-18T16:55:53.028Z,98721.88
2023-04-18T16:58:19.953Z,98744.50
2023-04-18T17:00:47.260Z,98722.50
2023-04-18T17:03:14.189Z,98732.66
2023-04-18T17:06:01.399Z,98726.09
2023-04-18T17:08:49.162Z,98738.19
2023-04-18T17:11:39.600Z,98741.88
2023-04-18T17:14:26.765Z,98748.88
2023-04-18T17:17:13.746Z,98745.53
2023-04-18T17:20:01.226Z,98738.13
2023-04-18T17:22:48.160Z,98737.84
2023-04-18T17:25:35.280Z,98732.63
2023-04-18T17:28:23.614Z,98724.50
2023-04-18T17:31:14.123Z,98736.28
2023-04-18T17:34:01.068Z,98736.00
2023-04-18T17:36:49.395Z,98739.06
2023-04-18T17:39:36.301Z,98733.94
2023-04-18T17:42:23.230Z,98734.88
2023-04-18T17:45:10.626Z,98718.56
2023-04-18T17:47:59.420Z,98728.53
2023-04-18T17:50:46.528Z,98731.78
2023-04-18T17:53:33.542Z,98732.88
2023-04-18T17:56:22.073Z,98724.59
2023-04-18T17:59:09.836Z,98735.41
2023-04-18T18:01:56.989Z,98733.16
2023-04-18T18:04:44.228Z,98738.66
2023-04-18T18:07:34.642Z,98742.50
2023-04-18T18:10:23.728Z,98732.31
2023-04-18T18:13:10.940Z,98741.16
2023-04-18T18:15:58.037Z,98751.84
2023-04-18T18:18:49.165Z,98734.69
2023-04-18T18:21:36.508Z,98738.88
2023-04-18T18:24:25.544Z,98754.00
2023-04-18T18:27:12.381Z,98748.03
2023-04-18T18:29:59.301Z,98732.88
2023-04-18T18:32:46.399Z,98762.22
2023-04-18T18:35:33.393Z,98760.25
2023-04-18T18:38:20.374Z,98762.22
2023-04-18T18:41:07.265Z,98762.38
2023-04-18T18:43:54.182Z,98773.72
2023-04-18T18:46:42.715Z,98764.56
2023-04-18T18:49:30.220Z,98768.78
2023-04-18T18:52:17.108Z,98778.34
2023-04-18T18:55:04.545Z,98775.69
2023-04-18T18:57:51.453Z,98763.78
2023-04-18T19:00:38.510Z,98773.66
2023-04-18T19:03:25.736Z,98772.19
2023-04-18T19:06:12.814Z,98774.88
2023-04-18T19:08:59.787Z,98756.78
2023-04-18T19:11:46.922Z,98763.78
2023-04-18T19:14:34.069Z,98755.81
2023-04-18T19:17:24.723Z,98768.41
2023-04-18T19:20:11.791Z,98752.50
2023-04-18T19:22:58.734Z,98765.22
2023-04-18T19:25:46.586Z,98772.53
2023-04-18T19:28:33.548Z,98763.63
2023-04-18T19:31:20.440Z,98767.91
